Henderson, TN (38340)

9:10 AM CST on December 04, 2016 (GMT -0600)
APRSWXNET | | Change Station

Elev 459 ft 35.43 °N, 88.65 °W | Updated 24 minutes ago

Overcast
Overcast
45 °F
Feels Like 45 °F
N
2
Wind Variable Wind from SW
Gusts 5.0 mph

Today
High -- | Low -- °F
--% Chance of Precip.
Yesterday
High -- | Low -- °F
Precip. -- in
Pressure 29.99 in
Visibility 9.0 miles
Clouds Overcast 600 ft
Windchill 45 °F
Dew Point 41 °F
Humidity 86%
Rainfall in
Snow Depth Not available.
6:48 AM 4:41 PM
Waxing Crescent, 23% visible
METAR KMKL 041453Z VRB04KT 9SM OVC006 07/07 A2998 RMK AO2 RAE05 CIG 004V009 SLP154 P0001 60006 T00720067 56013 $
Pressure 29.99 in
Visibility 9.0 miles
Clouds Overcast 600 ft
Windchill 45 °F
Dew Point 41 °F
Humidity 86%
Rainfall in
Snow Depth Not available.
6:48 AM 4:41 PM
Waxing Crescent, 23% visible
METAR KMKL 041453Z VRB04KT 9SM OVC006 07/07 A2998 RMK AO2 RAE05 CIG 004V009 SLP154 P0001 60006 T00720067 56013 $

10-Day Weather Forecast

Almanac

Astronomy

Dec. 04, 2016 Rise Set
Actual Time
Civil Twilight
Nautical Twilight
Astronomical Twilight
Moon
Length of Visible Light
Length of Day
Tomorrow will be .
, % of the Moon is Illuminated

Today's Extremes

State Highs State Lows

Community

WunderPhotos

Upload Photos

1,955,604 photos uploaded!

WunderBlog® & News

Nearby

Air Quality

  Air Quality AQ Index Pollutant
Not available.

Snow Depth

Station Depth Elevation

Earthquake Activity

City Distance Mag. Time & Date
Minimum magnitude displayed is 2.5.

Coastal Water Temperatures

Place Temperature

Stations

Nearby Weather Stations

Station Location Temp. Windchill Dew Point Humidity Wind Precip. Elev Updated Type
                   

Watches & Warnings

There are currently no watches in effect.